Time;durP1;ratioP1;P1;durP2;ratioP2;P2;SDS_P1;SDS_P2;PMS_P1;PMS_P2;Temp;Humidity;BMP_temperature;BMP_pressure;BME280_temperature;BME280_humidity;BME280_pressure;Samples;Min_cycle;Max_cycle;Signal;HPM_P1;HPM_P2
2022/09/23 00:00:31;;;;;;;2.85;2.30;;;;;;;6.83;100.00;99026.22;5047177;28;20063;-72
2022/09/23 00:02:58;;;;;;;3.08;2.00;;;;;;;6.67;100.00;99002.91;5046391;28;20112;-72
2022/09/23 00:05:24;;;;;;;5.47;2.20;;;;;;;6.72;100.00;99022.03;5043650;28;20401;-72
2022/09/23 00:07:49;;;;;;;5.80;2.30;;;;;;;6.75;100.00;99024.38;5045713;28;20029;-72
2022/09/23 00:10:14;;;;;;;3.30;2.03;;;;;;;6.85;100.00;99021.50;5044645;28;20028;-70
2022/09/23 00:12:40;;;;;;;3.45;2.05;;;;;;;6.90;100.00;99015.59;5045942;28;20029;-73
2022/09/23 00:15:06;;;;;;;3.40;1.90;;;;;;;6.82;100.00;99021.03;5046291;28;20048;-72
2022/09/23 00:17:31;;;;;;;3.67;2.20;;;;;;;6.77;100.00;99013.47;5042221;28;20087;-72
2022/09/23 00:19:56;;;;;;;4.47;2.20;;;;;;;6.76;100.00;99020.69;5044914;28;20036;-72
2022/09/23 00:22:22;;;;;;;3.38;1.92;;;;;;;6.71;100.00;99011.47;5039329;28;20036;-71
2022/09/23 00:24:47;;;;;;;5.40;2.22;;;;;;;6.75;100.00;98997.50;5042938;28;20028;-72
2022/09/23 00:27:12;;;;;;;3.45;2.15;;;;;;;6.87;100.00;99018.66;5043603;28;20028;-72
2022/09/23 00:29:38;;;;;;;3.08;2.03;;;;;;;6.76;100.00;99026.09;5045229;28;20029;-72
2022/09/23 00:32:04;;;;;;;3.40;1.98;;;;;;;6.74;100.00;99014.66;5046678;28;20082;-72
2022/09/23 00:34:29;;;;;;;3.30;1.95;;;;;;;6.60;100.00;99023.41;5044183;28;20116;-72
2022/09/23 00:36:55;;;;;;;2.70;1.83;;;;;;;6.46;100.00;99018.78;5047623;28;20021;-71
2022/09/23 00:39:22;;;;;;;4.55;2.42;;;;;;;6.36;100.00;99013.56;5040688;28;20055;-72
2022/09/23 00:41:47;;;;;;;4.78;2.38;;;;;;;6.43;100.00;99009.19;5046683;28;20033;-72
2022/09/23 00:44:43;;;;;;;2.55;2.10;;;;;;;6.32;100.00;99004.19;5047916;28;20094;-71
2022/09/23 00:47:20;;;;;;;3.25;2.10;;;;;;;6.43;100.00;99008.38;5035556;28;20200;-72
2022/09/23 00:49:50;;;;;;;4.03;2.40;;;;;;;6.32;100.00;99007.72;5043576;28;20021;-72
2022/09/23 00:52:18;;;;;;;4.35;2.33;;;;;;;6.21;100.00;98986.59;5041102;28;20530;-72
2022/09/23 00:54:46;;;;;;;2.85;2.17;;;;;;;6.11;100.00;99002.06;5040011;28;20394;-72
2022/09/23 00:57:14;;;;;;;4.50;2.50;;;;;;;6.12;100.00;99001.03;5049412;28;20029;-72
2022/09/23 00:59:40;;;;;;;4.43;2.60;;;;;;;6.11;100.00;98989.44;5046376;28;20028;-72
2022/09/23 01:02:06;;;;;;;4.28;2.50;;;;;;;6.02;100.00;98982.41;5041579;28;20033;-72
2022/09/23 01:04:32;;;;;;;3.53;2.33;;;;;;;6.03;100.00;98992.16;5045512;28;20029;-72
2022/09/23 01:06:57;;;;;;;4.30;2.20;;;;;;;6.11;100.00;99002.88;5046888;28;20047;-72
2022/09/23 01:09:24;;;;;;;3.90;2.63;;;;;;;5.90;100.00;98976.50;5044744;28;20669;-72
2022/09/23 01:11:52;;;;;;;3.40;2.50;;;;;;;6.07;100.00;98992.63;5042297;28;20056;-72
2022/09/23 01:14:42;;;;;;;3.45;2.60;;;;;;;6.11;100.00;98994.81;5042796;28;20029;-72
2022/09/23 01:17:17;;;;;;;4.25;2.50;;;;;;;6.10;100.00;98998.53;5045035;28;20063;-72
2022/09/23 01:20:19;;;;;;;3.28;2.40;;;;;;;6.09;100.00;98996.00;5041024;28;20025;-72
2022/09/23 01:22:51;;;;;;;4.88;2.47;;;;;;;5.99;100.00;98998.84;5042933;28;20071;-72
2022/09/23 01:25:40;;;;;;;3.47;2.38;;;;;;;6.00;100.00;98997.00;5045230;28;20033;-72
2022/09/23 01:28:16;;;;;;;;;;;;;;;6.01;100.00;98996.00;5044698;28;20502;-72
2022/09/23 01:31:03;;;;;;;3.88;2.30;;;;;;;5.99;100.00;98990.78;5040715;28;19916;-72
2022/09/23 01:33:42;;;;;;;3.75;2.22;;;;;;;5.97;100.00;98995.50;5037838;28;20021;-72
2022/09/23 01:36:17;;;;;;;3.42;2.50;;;;;;;5.75;100.00;98978.19;5038360;28;20051;-72
2022/09/23 01:38:49;;;;;;;4.60;2.53;;;;;;;5.68;100.00;98987.91;5045665;28;20040;-72
2022/09/23 01:41:36;;;;;;;3.80;2.60;;;;;;;5.60;100.00;98990.59;5046929;28;20632;-72
2022/09/23 01:44:08;;;;;;;3.78;2.50;;;;;;;5.52;100.00;98987.91;5032318;28;20067;-72
2022/09/23 01:46:39;;;;;;;4.65;2.10;;;;;;;5.37;100.00;98982.34;5037164;28;20028;-72
2022/09/23 01:49:11;;;;;;;3.50;2.67;;;;;;;5.32;100.00;98987.38;5046617;28;20132;-72
2022/09/23 01:51:42;;;;;;;3.45;2.60;;;;;;;5.25;100.00;98984.53;5049364;28;20040;-72
2022/09/23 01:54:34;;;;;;;5.72;3.10;;;;;;;5.29;100.00;98961.72;5037074;28;20025;-72
2022/09/23 01:57:02;;;;;;;3.60;2.80;;;;;;;5.45;100.00;98983.22;5036750;28;20033;-72
2022/09/23 01:59:37;;;;;;;5.17;3.13;;;;;;;5.44;100.00;98986.91;5037942;28;20509;-72
2022/09/23 02:02:18;;;;;;;5.80;3.35;;;;;;;5.30;100.00;98984.88;5045927;28;20059;-72
2022/09/23 02:04:46;;;;;;;3.22;2.58;;;;;;;5.22;100.00;98979.50;5046777;28;20044;-72
2022/09/23 02:07:24;;;;;;;4.00;2.95;;;;;;;5.19;100.00;98986.03;5043782;28;20119;-72
2022/09/23 02:09:58;;;;;;;5.00;3.00;;;;;;;5.32;100.00;98977.50;5045453;28;20048;-72
2022/09/23 02:12:28;;;;;;;9.90;4.05;;;;;;;5.20;100.00;98978.81;5040148;28;20040;-72
2022/09/23 02:15:13;;;;;;;5.95;3.30;;;;;;;5.08;100.00;98982.81;5044834;28;20031;-72
2022/09/23 02:17:48;;;;;;;4.43;3.25;;;;;;;5.10;100.00;98972.75;5039459;28;20044;-71
2022/09/23 02:20:19;;;;;;;10.88;3.80;;;;;;;5.09;100.00;98969.25;5041965;28;20021;-72
2022/09/23 02:23:00;;;;;;;4.57;3.25;;;;;;;5.01;100.00;98978.09;5046171;28;20029;-72
2022/09/23 02:25:34;;;;;;;5.32;3.72;;;;;;;4.84;100.00;98953.06;5039766;28;20029;-72
2022/09/23 02:28:11;;;;;;;6.25;3.70;;;;;;;4.94;100.00;98974.41;5053207;28;20430;-72
2022/09/23 02:30:47;;;;;;;5.53;3.70;;;;;;;4.80;100.00;98959.78;5048128;28;20032;-72
2022/09/23 02:33:53;;;;;;;6.57;3.85;;;;;;;4.95;100.00;98972.53;5048163;28;20103;-72
2022/09/23 02:36:34;;;;;;;8.75;3.78;;;;;;;4.89;100.00;98970.53;4983068;28;20558;-72
2022/09/23 02:39:05;;;;;;;5.38;3.45;;;;;;;4.87;100.00;98968.00;5037685;28;20763;-72
2022/09/23 02:41:45;;;;;;;4.90;3.38;;;;;;;4.82;100.00;98964.97;5046989;28;20100;-72
2022/09/23 02:44:16;;;;;;;6.47;3.22;;;;;;;4.82;100.00;98964.97;5043447;28;20021;-73
2022/09/23 02:46:43;;;;;;;5.30;3.40;;;;;;;4.79;100.00;98970.66;5051204;28;20035;-72
2022/09/23 02:49:16;;;;;;;7.47;4.05;;;;;;;4.76;100.00;98965.63;5050699;28;20029;-72
2022/09/23 02:51:42;;;;;;;7.43;3.20;;;;;;;4.72;100.00;98959.75;5049042;28;20036;-72
2022/09/23 02:54:13;;;;;;;4.80;3.38;;;;;;;4.68;100.00;98958.38;5047268;28;20028;-72
2022/09/23 02:56:39;;;;;;;4.63;3.28;;;;;;;4.55;100.00;98948.13;5036961;28;20113;-72
2022/09/23 02:59:06;;;;;;;8.10;3.15;;;;;;;4.42;100.00;98945.06;5047605;28;20025;-72
2022/09/23 03:01:59;;;;;;;6.68;3.85;;;;;;;4.51;100.00;98957.50;5045436;28;20032;-72
2022/09/23 03:04:39;;;;;;;8.27;3.88;;;;;;;4.52;100.00;98961.84;5044028;28;20197;-72
2022/09/23 03:07:17;;;;;;;6.88;3.60;;;;;;;4.45;100.00;98958.13;5046681;28;20028;-72
2022/09/23 03:09:48;;;;;;;7.45;4.07;;;;;;;4.39;100.00;98964.13;5045309;28;20044;-72
2022/09/23 03:12:35;;;;;;;5.22;3.63;;;;;;;4.30;100.00;98957.91;5042707;28;20063;-72
2022/09/23 03:15:10;;;;;;;6.07;3.40;;;;;;;4.40;100.00;98960.44;5041230;28;20029;-72
2022/09/23 03:17:45;;;;;;;5.18;3.38;;;;;;;4.32;100.00;98938.97;5047893;28;20036;-71
2022/09/23 03:20:41;;;;;;;5.35;3.80;;;;;;;4.31;100.00;98956.88;5041616;28;20566;-72
2022/09/23 03:23:11;;;;;;;6.45;3.97;;;;;;;4.30;100.00;98959.75;5042022;28;20501;-72
2022/09/23 03:25:43;;;;;;;5.15;3.60;;;;;;;4.23;100.00;98964.88;5043510;28;20067;-72
2022/09/23 03:28:09;;;;;;;4.93;3.25;;;;;;;4.23;100.00;98964.06;5048295;28;20049;-72
2022/09/23 03:30:36;;;;;;;5.90;3.38;;;;;;;4.17;100.00;98965.53;5046730;28;20082;-72
2022/09/23 03:33:08;;;;;;;6.45;3.40;;;;;;;4.16;100.00;98964.66;5043703;28;20036;-72
2022/09/23 03:36:48;;;;;;;5.85;3.90;;;;;;;4.24;100.00;98957.69;5057795;28;20028;-72
2022/09/23 03:38:31;;;;;;;5.53;4.05;;;;;;;4.21;100.00;98955.34;5040453;28;20036;-72
2022/09/23 03:41:00;;;;;;;4.50;3.70;;;;;;;4.22;100.00;98957.88;5045010;28;20470;-72
2022/09/23 03:43:25;;;;;;;5.05;3.53;;;;;;;4.29;100.00;98958.06;5035161;28;20029;-74
2022/09/23 03:45:56;;;;;;;6.65;3.63;;;;;;;4.43;100.00;98954.78;5048234;28;20102;-78
2022/09/23 03:48:22;;;;;;;5.60;3.80;;;;;;;4.28;100.00;98925.06;5056922;28;20094;-79
2022/09/23 03:50:47;;;;;;;5.10;3.70;;;;;;;4.31;100.00;98929.28;5060049;28;20029;-74
2022/09/23 03:53:13;;;;;;;5.70;4.00;;;;;;;4.26;100.00;98931.59;5043063;28;20465;-77
2022/09/23 03:55:39;;;;;;;6.82;3.80;;;;;;;4.01;100.00;98907.38;5068210;28;20130;-77
2022/09/23 03:58:05;;;;;;;6.43;3.95;;;;;;;4.01;100.00;98923.44;5060028;28;20055;-78
2022/09/23 04:00:31;;;;;;;7.28;3.60;;;;;;;3.78;100.00;98901.72;5060868;28;20017;-77
2022/09/23 04:02:56;;;;;;;7.22;3.78;;;;;;;3.72;100.00;98903.19;5057906;28;20111;-77
2022/09/23 04:05:21;;;;;;;5.97;4.05;;;;;;;3.87;100.00;98926.69;5054361;28;20064;-76
2022/09/23 04:07:48;;;;;;;6.05;4.05;;;;;;;3.86;100.00;98914.31;5055485;28;20025;-76
2022/09/23 04:10:14;;;;;;;6.13;4.03;;;;;;;3.92;100.00;98925.22;5056400;28;20032;-76
2022/09/23 04:12:39;;;;;;;5.57;3.70;;;;;;;3.79;100.00;98908.72;5053062;28;20029;-77
2022/09/23 04:15:05;;;;;;;7.43;4.50;;;;;;;3.71;100.00;98900.66;5042905;28;20024;-76
2022/09/23 04:17:30;;;;;;;8.50;4.28;;;;;;;3.72;100.00;98897.84;5043842;28;20025;-75
2022/09/23 04:19:56;;;;;;;6.88;3.97;;;;;;;3.71;100.00;98912.19;5045075;28;20025;-76
2022/09/23 04:22:21;;;;;;;7.45;4.03;;;;;;;3.61;100.00;98894.56;5046220;28;20643;-76
2022/09/23 04:24:48;;;;;;;5.15;3.67;;;;;;;3.55;100.00;98896.03;5040329;28;20028;-76
2022/09/23 04:27:13;;;;;;;5.43;3.58;;;;;;;3.51;100.00;98890.16;5046706;28;20572;-76
2022/09/23 04:29:38;;;;;;;5.85;3.53;;;;;;;3.66;100.00;98908.31;5046561;28;20025;-76
2022/09/23 04:32:04;;;;;;;8.23;3.80;;;;;;;3.71;100.00;98906.00;5047672;28;20044;-70
2022/09/23 04:34:29;;;;;;;4.95;3.22;;;;;;;3.57;100.00;98906.59;5049697;28;20033;-73
2022/09/23 04:36:54;;;;;;;5.38;3.90;;;;;;;3.64;100.00;98913.84;5045894;28;20025;-74
2022/09/23 04:39:19;;;;;;;5.90;3.22;;;;;;;3.47;100.00;98904.00;5046624;28;20502;-78
2022/09/23 04:41:45;;;;;;;7.10;3.92;;;;;;;3.45;100.00;98904.16;5049547;28;20031;-76
2022/09/23 04:44:12;;;;;;;10.32;4.00;;;;;;;3.77;100.00;98921.44;5049054;28;20562;-76
2022/09/23 04:46:39;;;;;;;6.10;3.92;;;;;;;3.56;100.00;98900.38;5042825;28;20032;-76
2022/09/23 04:49:05;;;;;;;10.48;4.18;;;;;;;3.40;100.00;98893.06;5043229;28;20025;-77
2022/09/23 04:51:30;;;;;;;5.93;3.95;;;;;;;3.50;100.00;98893.00;5048160;28;20111;-77
2022/09/23 04:53:55;;;;;;;5.22;3.42;;;;;;;3.64;100.00;98921.88;5047913;28;20112;-78
2022/09/23 04:56:26;;;;;;;5.55;3.50;;;;;;;3.60;100.00;98916.97;5046060;28;20474;-77
2022/09/23 04:58:52;;;;;;;8.13;4.82;;;;;;;3.45;100.00;98890.78;5047301;28;20029;-76
2022/09/23 05:01:23;;;;;;;14.55;7.22;;;;;;;3.59;100.00;98907.25;5048512;28;20051;-76
2022/09/23 05:03:50;;;;;;;9.68;5.53;;;;;;;3.46;100.00;98894.31;5046255;28;20029;-77
2022/09/23 05:06:15;;;;;;;6.72;4.18;;;;;;;3.54;100.00;98907.75;5047032;28;20032;-80
2022/09/23 05:08:46;;;;;;;8.70;4.82;;;;;;;3.61;100.00;98922.16;5049594;28;20029;-77
2022/09/23 05:11:12;;;;;;;7.57;4.25;;;;;;;3.61;100.00;98890.03;5065313;28;20410;-75
2022/09/23 05:13:37;;;;;;;10.20;3.88;;;;;;;3.56;100.00;98878.97;5049369;28;20037;-75
2022/09/23 05:16:06;;;;;;;6.70;3.95;;;;;;;3.60;100.00;98893.72;5050162;28;20023;-77
2022/09/23 05:18:37;;;;;;;5.80;4.07;;;;;;;3.96;100.00;98936.47;5047422;28;20025;-73
2022/09/23 05:21:03;;;;;;;9.77;4.38;;;;;;;4.01;100.00;98935.97;5046364;28;20024;-73
2022/09/23 05:23:29;;;;;;;5.53;4.13;;;;;;;3.98;100.00;98923.72;5043641;28;20060;-74
2022/09/23 05:26:00;;;;;;;8.50;4.45;;;;;;;3.99;100.00;98912.03;5038012;28;20113;-74
2022/09/23 05:28:28;;;;;;;7.72;4.07;;;;;;;4.27;100.00;98935.94;5040350;28;20734;-73
2022/09/23 05:31:01;;;;;;;7.75;4.32;;;;;;;4.37;100.00;98933.97;5040373;28;20032;-71
2022/09/23 05:33:27;;;;;;;5.35;3.75;;;;;;;4.40;100.00;98914.91;5039721;28;20108;-75
2022/09/23 05:35:52;;;;;;;6.60;4.72;;;;;;;4.50;100.00;98920.97;5046490;28;20035;-74
2022/09/23 05:38:17;;;;;;;8.20;4.40;;;;;;;4.61;100.00;98911.78;5034949;28;20481;-71
2022/09/23 05:40:43;;;;;;;8.63;4.38;;;;;;;4.99;100.00;98923.81;5042686;28;20040;-71
2022/09/23 05:43:08;;;;;;;8.73;4.13;;;;;;;6.22;100.00;98936.38;5042503;28;20021;-71
2022/09/23 05:45:34;;;;;;;4.97;3.38;;;;;;;7.95;100.00;98918.97;5037935;28;20061;-71
2022/09/23 05:47:59;;;;;;;4.72;3.50;;;;;;;9.03;93.15;98895.09;5034521;28;20025;-72
2022/09/23 05:50:25;;;;;;;3.95;2.97;;;;;;;10.59;81.74;98922.97;5044913;28;20021;-71
2022/09/23 05:52:51;;;;;;;6.47;3.45;;;;;;;11.73;72.70;98903.25;5035873;28;20037;-72
2022/09/23 05:55:16;;;;;;;4.32;2.90;;;;;;;12.35;68.04;98910.13;5057240;28;20024;-71
2022/09/23 05:57:41;;;;;;;4.47;2.40;;;;;;;12.62;66.53;98901.88;5043068;28;20440;-71
2022/09/23 06:00:07;;;;;;;5.22;2.80;;;;;;;13.34;62.63;98910.78;5042268;28;20029;-71
2022/09/23 06:02:33;;;;;;;4.57;2.55;;;;;;;13.63;60.55;98905.78;5038844;28;20045;-71
2022/09/23 06:04:58;;;;;;;4.75;2.78;;;;;;;13.63;58.96;98906.59;5033849;28;20513;-71
2022/09/23 06:07:24;;;;;;;4.93;2.95;;;;;;;14.57;58.13;98904.72;5040980;28;20036;-74
2022/09/23 06:09:51;;;;;;;3.70;2.60;;;;;;;14.42;56.42;98905.03;5053225;28;20559;-71
2022/09/23 06:12:16;;;;;;;5.53;2.70;;;;;;;14.83;55.55;98897.28;5036624;28;21528;-72
2022/09/23 06:14:42;;;;;;;6.65;3.38;;;;;;;14.80;54.83;98903.19;5041796;28;20033;-72
2022/09/23 06:17:07;;;;;;;8.48;3.33;;;;;;;15.02;54.34;98898.09;5037033;28;20458;-74
2022/09/23 06:19:32;;;;;;;5.82;3.22;;;;;;;15.49;53.42;98887.38;5049671;28;20021;-79
2022/09/23 06:21:57;;;;;;;8.80;3.13;;;;;;;16.06;52.41;98895.06;5048042;28;20451;-73
2022/09/23 06:24:23;;;;;;;3.92;2.85;;;;;;;15.68;52.51;98878.03;5041538;28;20040;-73
2022/09/23 06:26:48;;;;;;;5.63;2.60;;;;;;;16.83;49.78;98887.53;5050689;28;20822;-72
2022/09/23 06:29:13;;;;;;;10.63;3.00;;;;;;;16.77;49.54;98883.03;5047852;28;20025;-71
2022/09/23 06:31:42;;;;;;;6.40;3.40;;;;;;;15.79;52.11;98890.03;5047643;28;20390;-74
2022/09/23 06:34:12;;;;;;;4.60;2.58;;;;;;;16.92;50.97;98857.06;5047012;28;20025;-73
2022/09/23 06:36:38;;;;;;;6.60;2.92;;;;;;;17.95;47.45;98877.81;5045569;28;20063;-74
2022/09/23 06:39:03;;;;;;;9.00;2.60;;;;;;;19.33;44.33;98877.97;5044142;28;20699;-74
2022/09/23 06:41:29;;;;;;;10.13;2.72;;;;;;;19.79;43.24;98868.28;5043448;28;20033;-74
2022/09/23 06:43:54;;;;;;;9.05;3.15;;;;;;;21.08;40.88;98876.19;5044109;28;20033;-74
2022/09/23 06:46:19;;;;;;;6.80;3.30;;;;;;;20.02;43.46;98880.00;5044321;28;20029;-73
2022/09/23 06:48:45;;;;;;;11.13;3.38;;;;;;;20.91;41.13;98878.34;5050897;28;20444;-73
2022/09/23 06:51:18;;;;;;;9.02;3.78;;;;;;;19.86;43.53;98879.06;5042761;28;20166;-74
2022/09/23 06:53:47;;;;;;;9.75;3.35;;;;;;;18.25;47.47;98890.31;5044773;28;20029;-73
2022/09/23 06:56:14;;;;;;;5.97;2.95;;;;;;;18.30;46.24;98887.66;5041259;28;20026;-73
2022/09/23 06:58:39;;;;;;;4.35;3.17;;;;;;;17.81;48.10;98889.34;5043358;28;20442;-73
2022/09/23 07:01:14;;;;;;;9.63;3.00;;;;;;;17.68;49.06;98880.38;5049679;28;20032;-74
2022/09/23 07:03:40;;;;;;;4.55;2.83;;;;;;;18.64;46.57;98886.75;5048527;28;20032;-73
2022/09/23 07:06:06;;;;;;;4.47;2.53;;;;;;;19.54;43.73;98876.25;5046836;28;20782;-73
2022/09/23 07:08:32;;;;;;;6.32;3.78;;;;;;;20.07;42.93;98886.38;5046229;28;20112;-73
2022/09/23 07:11:00;;;;;;;6.40;4.10;;;;;;;20.64;41.63;98867.50;5046402;28;20021;-74
2022/09/23 07:13:26;;;;;;;4.90;3.10;;;;;;;20.74;41.80;98881.28;5045512;28;20029;-73
2022/09/23 07:15:57;;;;;;;9.80;3.08;;;;;;;21.11;41.96;98863.81;5049982;28;20032;-73
2022/09/23 07:18:24;;;;;;;4.93;2.92;;;;;;;22.02;40.26;98876.88;5048044;28;20029;-73
2022/09/23 07:20:50;;;;;;;3.72;2.55;;;;;;;22.85;38.09;98883.91;5046488;28;20025;-73
2022/09/23 07:23:18;;;;;;;4.15;2.63;;;;;;;21.87;39.88;98880.47;5045720;28;20091;-73
2022/09/23 07:25:45;;;;;;;6.43;2.53;;;;;;;23.63;37.57;98876.84;5047387;28;20154;-73
2022/09/23 07:28:11;;;;;;;8.25;2.35;;;;;;;23.06;38.22;98878.34;5043732;28;20078;-73
2022/09/23 07:30:38;;;;;;;7.65;2.50;;;;;;;23.06;37.76;98886.63;5045508;28;20025;-73
2022/09/23 07:33:03;;;;;;;5.22;2.22;;;;;;;23.61;37.89;98881.88;5044975;28;20021;-73
2022/09/23 07:35:29;;;;;;;3.90;2.30;;;;;;;23.11;37.25;98873.63;5050582;28;20784;-73
2022/09/23 07:37:54;;;;;;;3.60;2.20;;;;;;;23.55;36.71;98881.09;5059275;28;20029;-73
2022/09/23 07:40:19;;;;;;;5.93;1.85;;;;;;;23.18;36.80;98884.31;5045709;28;20028;-73
2022/09/23 07:42:46;;;;;;;4.22;1.80;;;;;;;22.81;36.58;98874.53;5051422;28;20068;-73
2022/09/23 07:45:11;;;;;;;3.40;1.70;;;;;;;22.30;37.39;98867.25;5043384;28;20036;-73
2022/09/23 07:47:38;;;;;;;3.90;1.98;;;;;;;21.29;39.58;98884.50;5045014;28;20037;-72
2022/09/23 07:50:05;;;;;;;2.67;1.88;;;;;;;19.75;42.04;98864.41;5048074;28;20016;-73
2022/09/23 07:52:30;;;;;;;2.50;1.60;;;;;;;18.99;44.25;98889.97;5050795;28;20045;-72
2022/09/23 07:54:55;;;;;;;3.60;1.80;;;;;;;18.28;45.40;98889.81;5040187;28;20037;-73
2022/09/23 07:57:21;;;;;;;5.70;2.40;;;;;;;18.09;46.33;98883.78;5048009;28;20035;-73
2022/09/23 07:59:46;;;;;;;8.75;1.80;;;;;;;18.71;45.11;98888.22;5048492;28;20074;-72
2022/09/23 08:02:13;;;;;;;2.78;2.00;;;;;;;18.54;44.75;98860.84;5044753;28;20043;-73
2022/09/23 08:04:38;;;;;;;8.75;2.50;;;;;;;19.00;44.65;98879.84;5046829;28;20036;-73
2022/09/23 08:07:05;;;;;;;5.30;2.10;;;;;;;18.80;45.20;98892.19;5045347;28;20048;-72
2022/09/23 08:09:34;;;;;;;2.63;1.80;;;;;;;18.58;45.44;98892.16;5046297;28;20033;-73
2022/09/23 08:11:59;;;;;;;5.35;1.50;;;;;;;18.29;46.07;98890.66;5048754;28;20048;-73
2022/09/23 08:14:24;;;;;;;3.63;1.85;;;;;;;18.10;47.10;98884.59;5042795;28;20028;-73
2022/09/23 08:16:51;;;;;;;3.67;1.85;;;;;;;18.81;45.83;98884.78;5041315;28;20035;-73
2022/09/23 08:19:17;;;;;;;4.53;1.95;;;;;;;18.86;45.52;98893.06;5046587;28;20025;-73
2022/09/23 08:21:45;;;;;;;3.95;1.83;;;;;;;18.55;46.14;98889.09;5048581;28;20040;-73
2022/09/23 08:24:15;;;;;;;2.17;1.80;;;;;;;18.77;45.76;98869.94;5042245;28;20084;-73
2022/09/23 08:26:40;;;;;;;4.28;2.20;;;;;;;18.29;46.96;98891.47;5042153;28;20139;-73
2022/09/23 08:29:08;;;;;;;3.20;2.00;;;;;;;18.36;46.96;98883.88;5048316;28;20103;-73
2022/09/23 08:31:34;;;;;;;4.03;1.65;;;;;;;18.10;47.65;98876.38;5062005;28;20025;-73
2022/09/23 08:33:59;;;;;;;5.80;1.83;;;;;;;18.94;45.98;98865.25;5047609;28;20059;-73
2022/09/23 08:36:25;;;;;;;3.03;2.08;;;;;;;19.02;45.96;98878.50;5047179;28;20025;-73
2022/09/23 08:38:51;;;;;;;5.10;1.95;;;;;;;19.79;44.89;98882.03;5041610;28;20062;-73
2022/09/23 08:41:39;;;;;;;6.45;1.90;;;;;;;20.04;44.06;98866.81;5048608;28;20025;-73
2022/09/23 08:44:19;;;;;;;6.27;2.17;;;;;;;19.72;44.17;98883.31;5047526;28;20056;-73
2022/09/23 08:46:51;;;;;;;10.65;2.30;;;;;;;19.69;44.88;98870.94;5043387;28;20286;-73
2022/09/23 08:49:29;;;;;;;4.18;1.95;;;;;;;20.06;44.37;98870.13;5041504;28;20032;-72
2022/09/23 08:51:55;;;;;;;4.20;1.88;;;;;;;20.06;44.01;98862.72;5046411;28;20568;-73
2022/09/23 08:54:20;;;;;;;6.60;2.13;;;;;;;20.42;43.79;98873.94;5045734;28;20032;-72
2022/09/23 08:56:51;;;;;;;5.38;1.90;;;;;;;20.50;43.00;98873.44;5044147;28;20115;-73
2022/09/23 08:59:27;;;;;;;4.43;2.28;;;;;;;20.37;43.64;98873.91;5046563;28;20498;-73
2022/09/23 09:01:59;;;;;;;2.80;1.80;;;;;;;20.53;43.28;98869.34;5040556;28;20027;-72
2022/09/23 09:04:27;;;;;;;3.28;1.63;;;;;;;21.08;43.00;98870.69;5056799;28;20765;-73
2022/09/23 09:07:11;;;;;;;5.47;1.73;;;;;;;21.45;41.84;98873.28;5040914;28;20029;-73
2022/09/23 09:09:44;;;;;;;2.75;1.77;;;;;;;22.01;40.94;98868.91;5042364;28;20103;-73
2022/09/23 09:12:26;;;;;;;4.13;1.65;;;;;;;21.60;41.38;98878.00;5045592;28;20041;-73
2022/09/23 09:14:59;;;;;;;3.55;1.70;;;;;;;21.14;42.45;98868.78;5041028;28;20032;-73
2022/09/23 09:17:33;;;;;;;4.72;1.63;;;;;;;20.70;43.11;98869.19;5047773;28;20469;-73
2022/09/23 09:20:13;;;;;;;6.55;2.00;;;;;;;21.37;42.35;98864.72;5046872;28;20052;-73
2022/09/23 09:22:51;;;;;;;5.55;2.20;;;;;;;21.76;41.60;98859.53;5044892;28;20052;-73
2022/09/23 09:25:41;;;;;;;2.92;1.90;;;;;;;22.71;38.94;98834.00;5038597;28;20052;-73
2022/09/23 09:28:26;;;;;;;3.20;1.80;;;;;;;23.80;37.79;98862.69;5041134;28;20182;-73
2022/09/23 09:30:56;;;;;;;3.97;2.28;;;;;;;24.80;36.57;98849.25;5039217;28;20025;-73
2022/09/23 09:33:39;;;;;;;4.00;2.00;;;;;;;25.41;35.74;98850.38;5045760;28;20519;-73
2022/09/23 09:36:35;;;;;;;2.80;1.88;;;;;;;24.80;37.00;98846.47;5044754;28;20060;-73
2022/09/23 09:39:01;;;;;;;3.17;1.85;;;;;;;25.37;34.50;98828.00;5045330;28;20033;-73
2022/09/23 09:41:30;;;;;;;4.60;1.75;;;;;;;25.09;34.58;98849.16;5041040;28;20063;-74
2022/09/23 09:43:59;;;;;;;5.22;1.60;;;;;;;25.23;35.79;98844.56;5045506;28;20032;-73
2022/09/23 09:46:24;;;;;;;6.32;2.15;;;;;;;25.55;34.64;98840.19;5042755;28;20033;-74
2022/09/23 09:49:31;;;;;;;3.23;2.17;;;;;;;25.39;34.26;98842.38;5044287;28;20044;-74
2022/09/23 09:52:30;;;;;;;4.90;1.70;;;;;;;25.41;34.43;98840.13;5017005;28;20345;-73
2022/09/23 09:55:16;;;;;;;;;;;;;;;26.23;33.31;98830.47;5036851;28;20110;-73
2022/09/23 09:57:49;;;;;;;4.80;1.65;;;;;;;25.99;33.51;98803.72;5051084;28;20655;-73
2022/09/23 10:00:20;;;;;;;3.38;1.40;;;;;;;25.87;33.88;98825.56;5049874;28;20048;-73
2022/09/23 10:02:50;;;;;;;5.95;1.83;;;;;;;27.07;32.85;98829.34;5051844;28;20076;-73
2022/09/23 10:05:26;;;;;;;5.90;1.50;;;;;;;26.38;32.08;98821.03;5050668;28;20576;-73
2022/09/23 10:07:53;;;;;;;2.92;1.60;;;;;;;27.29;31.57;98804.41;5053272;28;20039;-73
2022/09/23 10:10:22;;;;;;;2.90;1.50;;;;;;;27.00;32.15;98823.41;5049320;28;20032;-73
2022/09/23 10:12:48;;;;;;;3.15;1.40;;;;;;;28.00;30.81;98812.13;5049515;28;20029;-73
2022/09/23 10:15:42;;;;;;;2.83;1.30;;;;;;;27.85;30.97;98804.19;5045112;28;20031;-74
2022/09/23 10:18:18;;;;;;;1.17;1.08;;;;;;;28.23;30.62;98809.31;5044738;28;20028;-73
2022/09/23 10:20:45;;;;;;;2.28;1.50;;;;;;;28.88;30.36;98794.69;5042599;28;20122;-74
2022/09/23 10:23:19;;;;;;;1.80;1.20;;;;;;;29.20;29.45;98800.97;5048033;28;20041;-73
2022/09/23 10:25:55;;;;;;;4.15;1.60;;;;;;;28.68;29.24;98792.50;5051856;28;20629;-74
2022/09/23 10:28:31;;;;;;;1.85;1.25;;;;;;;28.01;30.05;98811.03;5047296;28;20104;-73
2022/09/23 10:31:23;;;;;;;2.53;1.20;;;;;;;29.43;28.47;98802.44;5047611;28;20420;-73
2022/09/23 10:33:53;;;;;;;1.92;1.23;;;;;;;29.80;28.86;98807.69;5050604;28;20028;-73
2022/09/23 10:36:19;;;;;;;2.10;1.25;;;;;;;29.81;28.27;98787.81;5046873;28;20487;-73
2022/09/23 10:38:48;;;;;;;3.13;1.48;;;;;;;28.09;30.04;98790.78;5049148;28;20494;-73
2022/09/23 10:47:40;;;;;;;4.88;1.30;;;;;;;29.20;29.85;98792.63;5055840;28;20034;-74
2022/09/23 10:50:15;;;;;;;2.05;1.30;;;;;;;30.11;27.85;98787.94;5051708;28;20029;-74
2022/09/23 10:52:47;;;;;;;1.40;1.17;;;;;;;31.15;26.94;98770.66;5048965;28;20119;-74
2022/09/23 10:55:46;;;;;;;6.10;1.17;;;;;;;31.10;26.78;98779.25;5045390;28;20033;-74
2022/09/23 10:58:49;;;;;;;2.30;1.00;;;;;;;32.17;27.07;98776.75;5043974;28;20056;-73
2022/09/23 11:01:30;;;;;;;1.85;1.10;;;;;;;33.18;25.99;98778.06;5044565;28;20157;-74
2022/09/23 11:04:21;;;;;;;2.03;0.90;;;;;;;33.14;25.02;98775.16;5050443;28;20040;-74
2022/09/23 11:07:09;;;;;;;6.05;1.27;;;;;;;32.18;25.51;98772.81;5071302;28;20033;-73
2022/09/23 11:10:06;;;;;;;2.53;1.27;;;;;;;32.32;25.13;98769.69;5038794;28;20036;-73
2022/09/23 11:12:55;;;;;;;2.53;1.25;;;;;;;31.06;26.41;98764.31;5060334;28;20066;-73
2022/09/23 11:15:52;;;;;;;2.72;1.27;;;;;;;29.98;27.70;98758.28;5043236;28;20053;-74
2022/09/23 11:18:28;;;;;;;1.75;1.25;;;;;;;29.41;28.20;98764.91;5048765;28;20486;-74
2022/09/23 11:21:25;;;;;;;2.42;1.17;;;;;;;31.49;26.93;98757.53;5050070;28;20044;-73
2022/09/23 11:24:11;;;;;;;1.50;1.10;;;;;;;30.70;26.76;98765.66;5045991;28;20486;-74
2022/09/23 11:26:44;;;;;;;3.15;1.27;;;;;;;31.98;25.34;98759.72;5045938;28;20529;-74
2022/09/23 11:29:20;;;;;;;2.08;1.30;;;;;;;32.23;26.16;98749.38;5046294;28;20052;-74
2022/09/23 11:32:10;;;;;;;2.30;1.27;;;;;;;29.87;27.45;98747.47;5043729;28;20059;-74
2022/09/23 11:35:01;;;;;;;1.33;0.95;;;;;;;31.16;27.58;98738.75;5053262;28;20033;-74
2022/09/23 11:37:31;;;;;;;6.63;1.50;;;;;;;32.48;26.00;98720.22;5039451;28;20494;-74
2022/09/23 11:40:21;;;;;;;2.97;0.90;;;;;;;33.14;25.47;98727.50;5042018;28;20098;-73
2022/09/23 11:42:55;;;;;;;1.98;1.25;;;;;;;31.00;26.27;98734.94;5040652;28;20637;-76
2022/09/23 11:45:26;;;;;;;2.10;1.27;;;;;;;31.18;26.72;98730.84;5045772;28;20051;-77
2022/09/23 11:48:00;;;;;;;2.28;1.20;;;;;;;30.58;27.72;98727.31;5049218;28;20033;-74
2022/09/23 11:50:32;;;;;;;2.38;1.40;;;;;;;27.44;31.06;98728.22;5057811;28;20398;-70
2022/09/23 11:53:05;;;;;;;3.20;1.42;;;;;;;29.42;28.60;98719.16;5040831;28;20182;-69
2022/09/23 11:55:40;;;;;;;6.22;1.55;;;;;;;30.88;28.04;98712.50;5036992;28;20032;-70
2022/09/23 11:58:28;;;;;;;4.15;1.88;;;;;;;31.79;26.42;98713.47;5036453;28;20744;-70
2022/09/23 12:01:06;;;;;;;2.42;1.20;;;;;;;32.00;25.91;98721.00;5046133;28;20024;-70